createdAt,value
2019-03-10T00:02:17.835Z,6.63
2019-03-10T00:04:44.883Z,6.37
2019-03-10T00:07:12.958Z,5.93
2019-03-10T00:09:40.010Z,6.97
2019-03-10T00:12:07.053Z,5.87
2019-03-10T00:14:34.208Z,6.17
2019-03-10T00:17:01.260Z,6.03
2019-03-10T00:19:28.308Z,6.60
2019-03-10T00:21:55.555Z,6.77
2019-03-10T00:24:22.610Z,5.67
2019-03-10T00:26:49.654Z,5.83
2019-03-10T00:29:18.139Z,6.70
2019-03-10T00:31:45.183Z,6.07
2019-03-10T00:34:12.231Z,5.77
2019-03-10T00:36:39.840Z,6.03
2019-03-10T00:39:07.865Z,5.33
2019-03-10T00:41:35.941Z,5.30
2019-03-10T00:44:04.830Z,5.27
2019-03-10T00:46:33.618Z,5.20
2019-03-10T00:49:06.504Z,4.57
2019-03-10T00:51:42.362Z,5.27
2019-03-10T00:54:10.847Z,6.10
2019-03-10T00:56:37.889Z,6.30
2019-03-10T00:59:07.395Z,5.10
2019-03-10T01:01:35.163Z,5.07
2019-03-10T01:04:02.216Z,4.70
2019-03-10T01:06:29.259Z,5.27
2019-03-10T01:08:56.307Z,4.83
2019-03-10T01:11:28.987Z,4.83
2019-03-10T01:13:56.043Z,5.00
2019-03-10T01:16:23.084Z,5.40
2019-03-10T01:18:50.133Z,5.20
2019-03-10T01:21:17.188Z,4.77
2019-03-10T01:23:44.436Z,4.20
2019-03-10T01:26:11.488Z,3.63
2019-03-10T01:28:38.532Z,3.53
2019-03-10T01:31:05.594Z,3.60
2019-03-10T01:33:38.362Z,4.30
2019-03-10T01:36:05.417Z,3.80
2019-03-10T01:38:32.773Z,2.93
2019-03-10T01:40:59.816Z,4.13
2019-03-10T01:43:26.864Z,3.53
2019-03-10T01:45:53.919Z,3.83
2019-03-10T01:48:20.961Z,3.60
2019-03-10T01:50:48.010Z,4.27
2019-03-10T01:53:25.008Z,3.93
2019-03-10T01:55:42.414Z,3.93
2019-03-10T01:58:09.463Z,3.90
2019-03-10T02:00:36.519Z,3.30
2019-03-10T02:03:03.975Z,3.83
2019-03-10T02:05:31.019Z,4.03
2019-03-10T02:07:58.066Z,4.00
2019-03-10T02:10:26.753Z,4.03
2019-03-10T02:12:53.807Z,4.80
2019-03-10T02:15:20.851Z,4.23
2019-03-10T02:17:49.539Z,4.63
2019-03-10T02:20:16.589Z,4.37
2019-03-10T02:22:43.640Z,4.33
2019-03-10T02:25:11.098Z,3.87
2019-03-10T02:27:38.147Z,4.50
2019-03-10T02:30:05.195Z,4.27
2019-03-10T02:32:32.246Z,4.03
2019-03-10T02:34:59.289Z,4.27
2019-03-10T02:37:27.568Z,4.60
2019-03-10T02:39:54.620Z,4.93
2019-03-10T02:42:21.624Z,3.07
2019-03-10T02:44:48.615Z,4.80
2019-03-10T02:47:15.657Z,4.17
2019-03-10T02:49:42.705Z,3.17
2019-03-10T02:52:09.763Z,2.73
2019-03-10T02:54:36.814Z,3.43
2019-03-10T02:57:03.854Z,4.57
2019-03-10T02:59:32.027Z,3.80
2019-03-10T03:01:59.075Z,4.03
2019-03-10T03:04:26.130Z,3.53
2019-03-10T03:06:58.199Z,3.87
2019-03-10T03:09:25.240Z,4.43
2019-03-10T03:11:52.301Z,4.47
2019-03-10T03:14:19.372Z,3.60
2019-03-10T03:16:49.071Z,3.70
2019-03-10T03:19:16.036Z,4.00
2019-03-10T03:21:43.949Z,3.67
2019-03-10T03:24:10.192Z,4.50
2019-03-10T03:26:39.088Z,3.60
2019-03-10T03:29:07.520Z,2.83
2019-03-10T03:31:39.018Z,3.57
2019-03-10T03:34:06.073Z,4.10
2019-03-10T03:36:33.117Z,3.60
2019-03-10T03:39:06.409Z,3.77
2019-03-10T03:41:34.994Z,4.00
2019-03-10T03:44:02.094Z,3.97
2019-03-10T03:46:30.740Z,3.03
2019-03-10T03:48:57.783Z,3.40
2019-03-10T03:51:24.828Z,3.30
2019-03-10T03:53:53.313Z,4.07
2019-03-10T03:56:20.447Z,3.00
2019-03-10T03:58:47.457Z,3.47
2019-03-10T04:01:18.609Z,3.50
2019-03-10T04:03:45.608Z,3.20
2019-03-10T04:06:13.058Z,3.00
2019-03-10T04:08:40.105Z,3.23
2019-03-10T04:11:11.161Z,3.40
2019-03-10T04:13:38.201Z,3.50
2019-03-10T04:16:05.249Z,3.60
2019-03-10T04:18:32.298Z,2.90
2019-03-10T04:20:59.353Z,3.50
2019-03-10T04:23:26.390Z,3.10
2019-03-10T04:25:53.444Z,4.87
2019-03-10T04:28:20.487Z,3.03
2019-03-10T04:30:47.537Z,3.60
2019-03-10T04:33:14.590Z,3.03
2019-03-10T04:35:41.634Z,3.63
2019-03-10T04:38:10.268Z,3.57
2019-03-10T04:40:37.471Z,2.93
2019-03-10T04:43:24.603Z,3.10
2019-03-10T04:45:51.640Z,3.30
2019-03-10T04:48:18.695Z,2.97
2019-03-10T04:50:45.736Z,3.93
2019-03-10T04:53:13.193Z,2.70
2019-03-10T04:55:53.145Z,3.60
2019-03-10T04:58:20.199Z,3.40
2019-03-10T05:00:47.242Z,3.27
2019-03-10T05:03:14.291Z,3.10
2019-03-10T05:05:41.344Z,3.50
2019-03-10T05:08:08.386Z,2.77
2019-03-10T05:10:35.439Z,3.60
2019-03-10T05:13:02.498Z,3.00
2019-03-10T05:15:29.951Z,2.90
2019-03-10T05:17:57.018Z,2.70
2019-03-10T05:20:24.039Z,3.20
2019-03-10T05:22:51.094Z,3.07
2019-03-10T05:25:18.249Z,2.87
2019-03-10T05:27:45.292Z,3.10
2019-03-10T05:30:12.309Z,3.50
2019-03-10T05:32:39.236Z,2.53
2019-03-10T05:35:06.240Z,3.10
2019-03-10T05:37:33.285Z,2.80
2019-03-10T05:40:02.169Z,6.93
2019-03-10T05:42:29.243Z,4.20
2019-03-10T05:44:56.267Z,5.23
2019-03-10T05:47:24.591Z,5.87
2019-03-10T05:49:51.597Z,3.10
2019-03-10T05:52:18.642Z,3.33
2019-03-10T05:55:04.895Z,3.00
2019-03-10T05:57:31.890Z,4.07
2019-03-10T05:59:58.944Z,3.97
2019-03-10T06:02:25.884Z,4.53
2019-03-10T06:04:52.934Z,11.90
2019-03-10T06:07:19.983Z,11.43
2019-03-10T06:09:48.870Z,4.10
2019-03-10T06:12:15.927Z,4.07
2019-03-10T06:14:42.967Z,3.97
2019-03-10T06:17:10.016Z,2.40
2019-03-10T06:19:37.006Z,3.07
2019-03-10T06:22:17.904Z,2.43
2019-03-10T06:24:44.889Z,0.97
2019-03-10T06:27:11.932Z,1.13
2019-03-10T06:29:38.983Z,3.40
2019-03-10T06:32:06.034Z,2.90
2019-03-10T06:34:33.076Z,0.77
2019-03-10T06:37:00.067Z,0.90
2019-03-10T06:39:27.071Z,2.33
2019-03-10T06:41:54.120Z,1.43
2019-03-10T06:44:21.482Z,0.80
2019-03-10T06:46:50.060Z,2.23
2019-03-10T06:49:17.263Z,2.07
2019-03-10T06:51:45.283Z,0.97
2019-03-10T06:54:12.332Z,4.07
2019-03-10T06:56:58.417Z,4.97
2019-03-10T06:59:37.547Z,2.17
2019-03-10T07:02:04.608Z,3.70
2019-03-10T07:04:31.660Z,3.73
2019-03-10T07:06:59.116Z,3.37
2019-03-10T07:09:26.170Z,3.17
2019-03-10T07:11:53.212Z,4.53
2019-03-10T07:14:20.260Z,3.87
2019-03-10T07:16:47.313Z,1.67
2019-03-10T07:19:14.357Z,5.27
2019-03-10T07:21:43.094Z,2.37
2019-03-10T07:24:10.094Z,2.67
2019-03-10T07:26:37.089Z,8.17
2019-03-10T07:29:04.805Z,5.93
2019-03-10T07:31:31.852Z,5.87
2019-03-10T07:34:13.749Z,6.07
2019-03-10T07:36:55.645Z,7.20
2019-03-10T07:39:32.730Z,5.07
2019-03-10T07:42:07.362Z,6.57
2019-03-10T07:44:36.248Z,6.37
2019-03-10T07:47:19.887Z,4.93
2019-03-10T07:49:48.785Z,6.53
2019-03-10T07:52:26.581Z,5.60
2019-03-10T07:54:59.260Z,7.80
2019-03-10T07:57:36.241Z,9.03
2019-03-10T08:00:21.107Z,7.80
2019-03-10T08:02:48.975Z,9.40
2019-03-10T08:05:16.741Z,10.07
2019-03-10T08:07:59.666Z,10.47
2019-03-10T08:10:29.581Z,7.90
2019-03-10T08:13:06.661Z,2.23
2019-03-10T08:15:39.443Z,2.43
2019-03-10T08:18:11.003Z,10.97
2019-03-10T08:20:43.884Z,10.17
2019-03-10T08:23:11.548Z,7.40
2019-03-10T08:25:40.540Z,7.40
2019-03-10T08:28:17.467Z,12.03
2019-03-10T08:30:45.497Z,7.73
2019-03-10T08:33:14.587Z,5.40
2019-03-10T08:35:56.484Z,4.23
2019-03-10T08:38:39.099Z,12.70
2019-03-10T08:41:27.139Z,17.70
2019-03-10T08:44:00.025Z,19.53
2019-03-10T08:46:47.862Z,19.77
2019-03-10T08:49:32.732Z,21.40
2019-03-10T08:52:02.546Z,19.63
2019-03-10T08:54:31.203Z,21.77
2019-03-10T08:57:15.072Z,21.17
2019-03-10T08:59:46.013Z,20.70
2019-03-10T09:02:13.885Z,20.20
2019-03-10T09:04:42.052Z,20.70
2019-03-10T09:07:23.992Z,21.20
2019-03-10T09:09:51.447Z,19.60
2019-03-10T09:12:19.213Z,27.95
2019-03-10T09:14:48.209Z,28.27
2019-03-10T09:17:19.016Z,29.50
2019-03-10T09:22:28.612Z,32.58
2019-03-10T09:25:01.601Z,30.33
2019-03-10T09:27:36.128Z,28.60
2019-03-10T09:30:22.108Z,28.02
2019-03-10T09:32:55.400Z,29.35
2019-03-10T09:35:24.394Z,29.33
2019-03-10T09:37:57.596Z,29.15
2019-03-10T09:40:25.666Z,29.20
2019-03-10T09:52:39.059Z,29.58
2019-03-10T09:55:08.880Z,28.12
2019-03-10T09:57:40.531Z,26.55
2019-03-10T10:00:23.348Z,26.53
2019-03-10T10:03:07.040Z,26.73
2019-03-10T10:05:38.514Z,27.50
2019-03-10T10:08:06.357Z,27.00
2019-03-10T10:18:23.255Z,25.52
2019-03-10T10:21:06.754Z,24.90
2019-03-10T10:23:47.579Z,25.50
2019-03-10T10:43:53.159Z,23.67
2019-03-10T10:46:26.038Z,23.38
2019-03-10T10:51:37.749Z,23.02
2019-03-10T10:54:21.186Z,18.80
2019-03-10T10:57:08.004Z,19.77
2019-03-10T10:59:36.988Z,22.33
2019-03-10T11:02:04.856Z,18.05
2019-03-10T11:04:49.211Z,19.27
2019-03-10T11:07:17.083Z,17.30
2019-03-10T11:12:14.705Z,20.60
2019-03-10T11:14:44.576Z,21.60
2019-03-10T11:27:31.866Z,20.20
2019-03-10T11:30:04.757Z,22.42
2019-03-10T11:32:31.908Z,21.10
2019-03-10T11:35:18.816Z,21.40
2019-03-10T11:37:47.040Z,22.33
2019-03-10T11:40:19.696Z,21.90
2019-03-10T11:43:01.682Z,18.98
2019-03-10T11:45:30.564Z,19.52
2019-03-10T11:48:16.146Z,19.57
2019-03-10T11:50:59.073Z,16.13
2019-03-10T11:58:40.081Z,15.20
2019-03-10T12:01:07.234Z,19.65
2019-03-10T12:03:40.019Z,18.30
2019-03-10T12:06:14.917Z,17.23
2019-03-10T12:16:04.575Z,17.67
2019-03-10T12:18:31.621Z,18.12
2019-03-10T12:20:58.567Z,18.58
2019-03-10T12:23:25.574Z,18.37
2019-03-10T12:25:52.671Z,17.12
2019-03-10T12:28:19.823Z,19.27
2019-03-10T12:30:46.973Z,17.17
2019-03-10T12:33:14.017Z,18.48
2019-03-10T12:35:41.985Z,14.63
2019-03-10T12:38:09.043Z,16.47
2019-03-10T12:40:36.084Z,19.58
2019-03-10T12:43:03.649Z,17.40
2019-03-10T12:45:30.695Z,16.20
2019-03-10T12:47:58.258Z,19.42
2019-03-10T12:50:27.452Z,20.05
2019-03-10T12:52:54.500Z,19.92
2019-03-10T12:55:21.993Z,16.93
2019-03-10T12:57:49.012Z,17.20
2019-03-10T13:05:09.235Z,15.53
2019-03-10T13:07:37.465Z,11.70
2019-03-10T13:10:06.245Z,17.20
2019-03-10T13:12:33.347Z,17.13
2019-03-10T13:15:00.519Z,18.57
2019-03-10T13:17:27.617Z,57.50
2019-03-10T13:19:54.798Z,15.40
2019-03-10T13:22:21.848Z,31.93
2019-03-10T13:24:48.908Z,30.10
2019-03-10T13:27:15.945Z,19.97
2019-03-10T13:32:09.432Z,18.67
2019-03-10T13:34:36.477Z,20.33
2019-03-10T13:37:03.524Z,19.60
2019-03-10T13:39:32.564Z,19.70
2019-03-10T13:41:59.670Z,22.87
2019-03-10T13:44:26.726Z,18.17
2019-03-10T13:46:53.828Z,19.62
2019-03-10T13:49:21.027Z,19.98
2019-03-10T13:51:48.495Z,19.40
2019-03-10T13:54:15.639Z,19.50
2019-03-10T13:56:42.884Z,17.53
2019-03-10T13:59:10.043Z,19.13
2019-03-10T14:01:37.090Z,20.23
2019-03-10T14:18:46.014Z,20.10
2019-03-10T14:21:13.134Z,20.00
2019-03-10T14:23:40.215Z,19.80
2019-03-10T14:28:33.905Z,18.33
2019-03-10T14:31:01.055Z,20.17
2019-03-10T14:33:28.206Z,20.10
2019-03-10T14:35:55.557Z,19.50
2019-03-10T14:40:49.045Z,20.58
2019-03-10T14:43:16.143Z,21.35
2019-03-10T14:48:09.778Z,20.88
2019-03-10T14:50:36.827Z,20.27
2019-03-10T14:53:04.684Z,20.77
2019-03-10T14:55:31.035Z,18.23
2019-03-10T14:57:58.562Z,18.50
2019-03-10T15:00:28.838Z,17.87
2019-03-10T15:10:26.963Z,21.70
2019-03-10T15:12:55.372Z,22.63
2019-03-10T15:15:25.036Z,23.03
2019-03-10T15:17:52.696Z,21.00
2019-03-10T15:25:15.993Z,22.48
2019-03-10T15:27:43.693Z,19.73
2019-03-10T15:30:12.529Z,20.60
2019-03-10T15:32:41.330Z,22.67
2019-03-10T15:47:33.670Z,19.90
2019-03-10T15:50:00.705Z,21.50
2019-03-10T15:52:31.235Z,21.48
2019-03-10T15:54:58.605Z,20.50
2019-03-10T15:57:26.277Z,21.52
2019-03-10T15:59:53.407Z,17.70
2019-03-10T16:02:21.277Z,17.27
2019-03-10T16:04:48.320Z,25.75
2019-03-10T16:07:15.376Z,39.00
2019-03-10T16:19:46.177Z,14.67
2019-03-10T16:22:14.352Z,16.33
2019-03-10T16:24:41.406Z,16.75
2019-03-10T16:27:08.461Z,13.50
2019-03-10T16:29:36.169Z,13.15
2019-03-10T16:32:03.266Z,14.00
2019-03-10T16:36:58.905Z,14.00
2019-03-10T16:39:26.056Z,13.30
2019-03-10T16:41:53.510Z,13.70
2019-03-10T16:44:20.768Z,14.45
2019-03-10T16:46:48.215Z,17.25
2019-03-10T17:16:10.858Z,12.73
2019-03-10T17:19:02.476Z,9.77
2019-03-10T17:21:30.248Z,8.73
2019-03-10T17:23:57.296Z,13.73
2019-03-10T17:26:25.673Z,13.98
2019-03-10T17:28:54.740Z,14.18
2019-03-10T17:31:23.953Z,14.23
2019-03-10T17:33:53.932Z,12.88
2019-03-10T17:36:21.148Z,12.82
2019-03-10T17:38:48.289Z,13.13
2019-03-10T17:41:15.857Z,11.95
2019-03-10T17:43:43.111Z,10.77
2019-03-10T17:46:10.355Z,11.55
2019-03-10T17:48:37.408Z,11.03
2019-03-10T17:51:05.452Z,10.17
2019-03-10T17:55:59.494Z,11.18
2019-03-10T17:58:28.370Z,9.80
2019-03-10T18:00:57.725Z,10.25
2019-03-10T18:03:24.822Z,10.45
2019-03-10T18:05:51.863Z,10.32
2019-03-10T18:08:18.932Z,10.10
2019-03-10T18:10:45.967Z,9.13
2019-03-10T18:13:13.009Z,8.33
2019-03-10T18:15:40.316Z,10.35
2019-03-10T18:18:07.311Z,9.73
2019-03-10T18:20:34.360Z,9.98
2019-03-10T18:23:01.414Z,10.13
2019-03-10T18:25:28.459Z,9.63
2019-03-10T18:28:19.336Z,9.80
2019-03-10T18:30:46.429Z,10.57
2019-03-10T18:33:13.424Z,8.10
2019-03-10T18:35:40.650Z,13.32
2019-03-10T18:38:07.778Z,9.33
2019-03-10T18:40:35.635Z,9.68
2019-03-10T18:53:03.675Z,8.80
2019-03-10T18:55:30.725Z,9.55
2019-03-10T18:57:58.635Z,12.65
2019-03-10T19:00:27.600Z,9.40
2019-03-10T19:02:54.633Z,13.83
2019-03-10T19:05:21.785Z,11.50
2019-03-10T19:07:49.244Z,9.20
2019-03-10T19:10:16.297Z,8.43
2019-03-10T19:12:43.356Z,6.73
2019-03-10T19:22:32.016Z,7.63
2019-03-10T19:24:59.069Z,13.20
2019-03-10T19:27:30.051Z,7.40
2019-03-10T19:29:54.215Z,11.97
2019-03-10T19:32:21.240Z,13.93
2019-03-10T19:34:49.542Z,10.10
2019-03-10T19:37:16.590Z,9.60
2019-03-10T19:39:43.644Z,7.73
2019-03-10T19:42:10.688Z,8.50
2019-03-10T19:44:37.897Z,8.77
2019-03-10T19:47:04.994Z,8.17
2019-03-10T19:49:32.142Z,8.27
2019-03-10T19:52:01.551Z,7.90
2019-03-10T19:54:30.290Z,8.33
2019-03-10T19:57:00.362Z,9.07
2019-03-10T19:59:28.015Z,8.00
2019-03-10T20:01:59.990Z,8.23
2019-03-10T20:04:29.194Z,7.97
2019-03-10T20:07:00.236Z,8.40
2019-03-10T20:09:55.451Z,8.37
2019-03-10T20:12:23.808Z,8.13
2019-03-10T20:14:51.070Z,9.23
2019-03-10T20:17:18.116Z,9.23
2019-03-10T20:19:45.876Z,8.97
2019-03-10T20:22:14.055Z,9.63
2019-03-10T20:24:41.098Z,9.00
2019-03-10T20:27:08.147Z,9.60
2019-03-10T20:29:35.202Z,9.40
2019-03-10T20:32:13.104Z,9.50
2019-03-10T20:34:29.908Z,9.43
2019-03-10T20:37:00.158Z,8.03
2019-03-10T20:39:28.114Z,8.00
2019-03-10T20:42:04.708Z,8.10
2019-03-10T20:44:23.999Z,9.47
2019-03-10T20:46:50.943Z,8.60
2019-03-10T20:49:18.001Z,8.30
2019-03-10T20:51:48.294Z,7.53
2019-03-10T20:54:17.158Z,7.50
2019-03-10T20:56:47.616Z,7.90
2019-03-10T20:59:18.491Z,10.00
2019-03-10T21:01:45.771Z,8.90
2019-03-10T21:04:17.445Z,8.00
2019-03-10T21:06:48.311Z,7.77
2019-03-10T21:09:37.739Z,8.00
2019-03-10T21:12:05.200Z,22.80
2019-03-10T21:14:35.413Z,15.27
2019-03-10T21:17:02.571Z,8.73
2019-03-10T21:19:29.830Z,8.13
2019-03-10T21:21:59.656Z,8.97
2019-03-10T21:24:26.646Z,36.87
2019-03-10T21:26:53.698Z,27.17
2019-03-10T21:29:21.634Z,10.07
2019-03-10T21:31:48.755Z,8.43
2019-03-10T21:34:15.905Z,8.37
2019-03-10T21:36:45.617Z,16.53
2019-03-10T21:39:12.666Z,12.97
2019-03-10T21:41:39.670Z,9.73
2019-03-10T21:44:06.762Z,11.97
2019-03-10T21:46:34.635Z,10.03
2019-03-10T21:49:01.635Z,9.60
2019-03-10T21:51:28.749Z,9.50
2019-03-10T21:53:55.781Z,12.80
2019-03-10T21:56:22.833Z,9.73
2019-03-10T21:58:49.873Z,9.10
2019-03-10T22:01:16.926Z,9.73
2019-03-10T22:03:43.975Z,9.53
2019-03-10T22:06:11.018Z,10.37
2019-03-10T22:08:38.016Z,9.50
2019-03-10T22:11:05.017Z,9.23
2019-03-10T22:13:32.120Z,9.77
2019-03-10T22:15:59.218Z,9.13
2019-03-10T22:18:26.279Z,9.13
2019-03-10T22:20:53.309Z,10.43
2019-03-10T22:23:20.305Z,9.50
2019-03-10T22:25:47.407Z,9.37
2019-03-10T22:28:14.455Z,8.77
2019-03-10T22:30:41.510Z,9.43
2019-03-10T22:33:08.554Z,9.27
2019-03-10T22:35:35.706Z,8.93
2019-03-10T22:38:02.751Z,9.33
2019-03-10T22:40:29.698Z,9.57
2019-03-10T22:42:56.759Z,9.23
2019-03-10T22:45:23.820Z,8.63
2019-03-10T22:47:50.847Z,9.47
2019-03-10T22:50:17.928Z,8.50
2019-03-10T22:52:45.043Z,9.30
2019-03-10T22:55:12.041Z,11.30
2019-03-10T22:57:39.140Z,9.07
2019-03-10T23:00:14.176Z,8.73
2019-03-10T23:02:43.478Z,8.90
2019-03-10T23:05:10.837Z,9.20
2019-03-10T23:07:37.911Z,8.87
2019-03-10T23:10:05.956Z,8.20
2019-03-10T23:12:33.003Z,9.33
2019-03-10T23:14:59.935Z,8.90
2019-03-10T23:17:28.022Z,9.13
2019-03-10T23:19:55.070Z,9.17
2019-03-10T23:22:22.125Z,9.23
2019-03-10T23:24:49.889Z,8.90
2019-03-10T23:27:16.934Z,8.93
2019-03-10T23:29:43.928Z,10.87
2019-03-10T23:32:12.361Z,9.43
2019-03-10T23:34:39.421Z,11.03
2019-03-10T23:37:06.461Z,9.80
2019-03-10T23:39:33.509Z,9.37
2019-03-10T23:42:00.561Z,9.43
2019-03-10T23:44:27.605Z,10.00
2019-03-10T23:46:55.269Z,10.63
2019-03-10T23:49:22.322Z,10.20
2019-03-10T23:51:49.364Z,10.10
2019-03-10T23:54:17.335Z,9.63
2019-03-10T23:56:44.390Z,9.83
2019-03-10T23:59:11.538Z,11.60
